Denver, CO (80202)

9:41 PM MDT on March 23, 2017 (GMT -0600)
San Rafael Neighborhood | | Change Station
Active Advisory: Winter Weather Advisory

Elev 5253 ft 39.75 °N, 104.98 °W | Updated 4 minutes ago

Overcast
Overcast
45.5 °F
Feels Like 39 °F
N
13.0
Wind Variable Wind from North
Gusts 13.6 mph

Today
High -- | Low -- °F
--% Chance of Precip.
Yesterday
High -- | Low -- °F
Precip. -- in
Pressure 29.67 in
Visibility 3.0 miles
Clouds Scattered Clouds 8500 ft
Mostly Cloudy 12000 ft
Windchill 39 °F
Dew Point 40 °F
Humidity 81%
Rainfall 0.00 in
Snow Depth Not available.
6:58 AM 7:15 PM
Waning Crescent, 18% visible
METAR KBJC 240245Z COR 36027G40KT 3SM BR SCT085 BKN120 14/02 A2967
Pressure 29.67 in
Visibility 3.0 miles
Clouds Scattered Clouds 8500 ft
Mostly Cloudy 12000 ft
Windchill 39 °F
Dew Point 40 °F
Humidity 81%
Rainfall 0.00 in
Snow Depth Not available.
6:58 AM 7:15 PM
Waning Crescent, 18% visible
METAR KBJC 240245Z COR 36027G40KT 3SM BR SCT085 BKN120 14/02 A2967

Get Your Daily Forecast Email!

Thanks for signing up!

Be on the lookout for a verification email in your inbox.

You'll start receiving severe weather alerts in your inbox..

×

10-Day Weather Forecast

Almanac

Astronomy

Mar. 23, 2017 Rise Set
Actual Time
Civil Twilight
Nautical Twilight
Astronomical Twilight
Moon
Length of Visible Light
Length of Day
Tomorrow will be .
, % of the Moon is Illuminated

Today's Extremes

State Highs State Lows

Community

WunderPhotos

Upload Photos

1,962,540 photos uploaded!

WunderBlog® & News

Nearby

Air Quality

  Air Quality AQ Index Pollutant
Not available.

Snow Depth

Station Depth Elevation

Earthquake Activity

City Distance Mag. Time & Date
Minimum magnitude displayed is 2.5.

Earthquake Activity

City Distance Mag. Time & Date
Minimum magnitude displayed is 2.5.

Coastal Water Temperatures

Place Temperature

Stations

Nearby Weather Stations

Station Location Temp. Windchill Dew Point Humidity Wind Precip. Elev Updated Type
                   

Watches & Warnings

Winter Weather Advisory
Issued: 3:30 PM MDT Mar. 23, 2017 – National Weather Service

... Winter Weather Advisory remains in effect from 3 am to noon
MDT Friday...

* timing... snow will increase in intensity over the northern
mountains after midnight and continue into Friday morning. The
heaviest snowfall is likely from late night through mid
morning Friday.

* Snow accumulations... 3 to 6 inches.

* Wind/visibility... north 20 to 35 mph with gusts to 45 mph.
Visibilities could be under one quarter of a mile in heavier
snow.

* Impacts... snow, gusty winds and poor visibilities will create
hazardous winter driving conditions. Roads will be icy and
snow packed.

Precautionary/preparedness actions...

A Winter Weather Advisory for snow means that periods of snow
will cause primarily travel difficulties. Be prepared for snow
covered roads and limited visibilities... and use caution while
driving.